West Ocean City, Maryland
Current Conditions -  °F | °C
As of 8:11 PM on Wednesday 22 Oct 2014 (Local Time) from KOXB Reporting Station
Light Rain Light Rain  
Wind Chill: 54°   Ceiling: 1500
Heat Index: 54°   Visibility: 7mi
Dew Point: 51°   Wind: 14mph
Humidity: 90%   Direction: 340°NNW
Pressure: 29.78"   Gusts: 22mph
Location:  38.3984°N, 75.0667°W
Report Text: KOXB 230011Z AUTO 34012G19KT 7SM -RA FEW010 BKN015 OVC023 12/11 A2978 RMK AO2 P0000 T01220106 TSNO
Loading
Personal Weather Stations






























Interactive Weather Map
Tropical Storm Tracking
New forecast layout! Learn more

10-Day Weather Forecast

Advertisements
Track Severe Weather on mobile